createdAt,value
2022-11-29T00:01:31.143Z,1.02
2022-11-29T00:03:58.614Z,1.15
2022-11-29T00:06:28.417Z,1.50
2022-11-29T00:08:57.213Z,1.20
2022-11-29T00:11:46.106Z,1.13
2022-11-29T00:14:17.098Z,1.30
2022-11-29T00:16:44.248Z,1.10
2022-11-29T00:19:13.564Z,1.10
2022-11-29T00:21:40.533Z,1.20
2022-11-29T00:24:08.139Z,1.70
2022-11-29T00:26:37.231Z,1.20
2022-11-29T00:29:05.011Z,1.05
2022-11-29T00:31:33.064Z,1.10
2022-11-29T00:34:06.673Z,1.10
2022-11-29T00:36:35.225Z,1.15
2022-11-29T00:39:04.399Z,0.98
2022-11-29T00:41:32.269Z,1.00
2022-11-29T00:43:59.280Z,1.23
2022-11-29T00:46:26.260Z,1.70
2022-11-29T00:48:53.273Z,1.30
2022-11-29T00:51:20.349Z,1.10
2022-11-29T00:53:47.526Z,1.30
2022-11-29T00:56:14.674Z,0.90
2022-11-29T00:58:43.673Z,1.17
2022-11-29T01:01:11.907Z,1.42
2022-11-29T01:03:39.169Z,1.20
2022-11-29T01:06:11.829Z,1.38
2022-11-29T01:08:39.491Z,1.20
2022-11-29T01:11:14.933Z,1.55
2022-11-29T01:13:42.533Z,1.30
2022-11-29T01:16:10.355Z,1.80
2022-11-29T01:18:38.151Z,1.98
2022-11-29T01:21:08.701Z,1.77
2022-11-29T01:23:37.043Z,1.93
2022-11-29T01:26:15.036Z,0.88
2022-11-29T01:28:42.858Z,1.63
2022-11-29T01:31:18.140Z,2.28
2022-11-29T01:33:46.106Z,1.67
2022-11-29T01:36:13.795Z,2.10
2022-11-29T01:38:42.637Z,1.92
2022-11-29T01:41:14.883Z,1.88
2022-11-29T01:44:17.987Z,2.28
2022-11-29T01:46:46.771Z,2.22
2022-11-29T01:49:42.102Z,2.40
2022-11-29T01:52:13.734Z,1.92
2022-11-29T01:54:48.521Z,2.13
2022-11-29T01:57:16.475Z,1.88
2022-11-29T01:59:48.800Z,2.05
2022-11-29T02:02:24.903Z,2.20
2022-11-29T02:04:52.537Z,1.98
2022-11-29T02:07:19.678Z,1.63
2022-11-29T02:09:46.779Z,2.20
2022-11-29T02:12:38.738Z,2.50
2022-11-29T02:15:33.772Z,1.75
2022-11-29T02:18:15.698Z,2.65
2022-11-29T02:21:16.384Z,1.70
2022-11-29T02:24:42.179Z,1.98
2022-11-29T02:27:48.050Z,1.92
2022-11-29T02:30:38.920Z,1.55
2022-11-29T02:33:58.208Z,2.17
2022-11-29T03:14:57.380Z,1.95
2022-11-29T03:21:27.568Z,1.55
2022-11-29T03:24:00.940Z,1.70
2022-11-29T03:26:41.637Z,1.10
2022-11-29T03:29:19.348Z,1.30
2022-11-29T03:32:34.236Z,1.67
2022-11-29T03:35:25.798Z,1.50
2022-11-29T03:38:31.810Z,1.10
2022-11-29T03:41:23.289Z,1.20
2022-11-29T03:44:13.433Z,1.33
2022-11-29T03:47:03.559Z,1.17
2022-11-29T03:49:45.151Z,1.42
2022-11-29T03:55:46.704Z,1.50
2022-11-29T03:58:49.466Z,1.35
2022-11-29T04:02:00.376Z,1.95
2022-11-29T04:05:10.196Z,1.73
2022-11-29T04:08:27.829Z,1.85
2022-11-29T04:11:37.312Z,2.13
2022-11-29T04:14:31.049Z,2.08
2022-11-29T04:17:56.155Z,1.52
2022-11-29T04:21:13.231Z,2.33
2022-11-29T04:24:24.847Z,1.55
2022-11-29T04:27:10.420Z,1.75
2022-11-29T04:30:14.347Z,1.35
2022-11-29T04:48:59.116Z,1.58
2022-11-29T04:52:09.826Z,1.15
2022-11-29T04:54:55.757Z,1.45
2022-11-29T04:57:47.745Z,1.67
2022-11-29T05:00:21.385Z,2.33
2022-11-29T05:03:31.609Z,0.90
2022-11-29T05:06:15.800Z,1.50
2022-11-29T05:09:19.615Z,3.92
2022-11-29T05:12:45.469Z,4.30
2022-11-29T05:15:56.291Z,1.13
2022-11-29T05:18:53.772Z,1.60
2022-11-29T05:21:48.231Z,1.08
2022-11-29T05:24:50.835Z,2.33
2022-11-29T05:56:22.879Z,2.25
2022-11-29T05:58:56.127Z,2.65
2022-11-29T06:01:30.286Z,3.17
2022-11-29T06:04:23.668Z,2.58
2022-11-29T06:07:03.541Z,2.78
2022-11-29T06:10:06.887Z,3.05
2022-11-29T06:12:38.141Z,2.70
2022-11-29T06:15:23.706Z,2.92
2022-11-29T06:18:11.289Z,2.08
2022-11-29T06:21:08.505Z,2.97
2022-11-29T06:23:48.709Z,2.72
2022-11-29T06:26:47.767Z,2.88
2022-11-29T06:33:18.223Z,3.30
2022-11-29T06:36:28.374Z,3.40
2022-11-29T06:38:55.883Z,3.95
2022-11-29T06:41:24.604Z,3.10
2022-11-29T06:43:52.302Z,4.07
2022-11-29T06:46:53.251Z,3.47
2022-11-29T06:50:03.578Z,4.93
2022-11-29T06:53:22.327Z,2.83
2022-11-29T06:56:17.770Z,3.00
2022-11-29T06:59:24.933Z,3.25
2022-11-29T07:02:02.124Z,3.05
2022-11-29T07:05:12.996Z,4.03
2022-11-29T07:07:42.075Z,3.35
2022-11-29T07:10:17.929Z,5.15
2022-11-29T07:12:47.823Z,3.45
2022-11-29T07:15:20.502Z,3.63
2022-11-29T07:18:07.542Z,3.60
2022-11-29T07:21:42.346Z,4.47
2022-11-29T07:24:43.693Z,3.90
2022-11-29T07:27:33.592Z,3.97
2022-11-29T07:30:21.851Z,3.80
2022-11-29T07:33:20.855Z,5.38
2022-11-29T07:35:59.836Z,4.63
2022-11-29T07:39:19.136Z,6.13
2022-11-29T07:42:16.757Z,5.03
2022-11-29T07:45:12.633Z,5.25
2022-11-29T07:47:39.638Z,5.53
2022-11-29T07:50:07.833Z,4.68
2022-11-29T07:52:34.991Z,4.28
2022-11-29T07:55:02.504Z,4.57
2022-11-29T07:57:29.529Z,4.72
2022-11-29T07:59:58.944Z,7.60
2022-11-29T08:02:30.909Z,5.03
2022-11-29T08:04:58.740Z,6.78
2022-11-29T08:07:26.042Z,5.57
2022-11-29T08:09:53.120Z,5.40
2022-11-29T08:12:20.377Z,3.63
2022-11-29T08:14:47.604Z,3.78
2022-11-29T08:17:14.862Z,4.00
2022-11-29T08:19:41.892Z,4.10
2022-11-29T08:22:08.908Z,4.32
2022-11-29T08:24:35.957Z,3.70
2022-11-29T08:27:03.093Z,3.70
2022-11-29T08:29:30.355Z,4.13
2022-11-29T08:31:58.600Z,4.80
2022-11-29T08:34:26.206Z,3.50
2022-11-29T08:36:56.670Z,4.82
2022-11-29T08:39:23.738Z,5.30
2022-11-29T08:41:50.791Z,4.53
2022-11-29T08:44:18.787Z,5.10
2022-11-29T08:47:04.855Z,4.68
2022-11-29T08:49:32.166Z,5.03
2022-11-29T08:52:17.975Z,4.75
2022-11-29T08:54:45.223Z,6.53
2022-11-29T08:59:59.767Z,3.70
2022-11-29T09:02:26.955Z,11.35
2022-11-29T09:04:54.066Z,7.95
2022-11-29T09:07:21.160Z,4.05
2022-11-29T09:09:49.031Z,3.25
2022-11-29T09:12:16.209Z,5.40
2022-11-29T09:14:43.584Z,3.53
2022-11-29T12:46:30.315Z,2.95
2022-11-29T12:49:37.868Z,2.72
2022-11-29T12:52:29.454Z,3.70
2022-11-29T12:57:46.195Z,3.35
2022-11-29T13:00:20.066Z,3.97
2022-11-29T13:03:04.253Z,4.65
2022-11-29T13:06:05.089Z,2.30
2022-11-29T13:09:34.393Z,1.87
2022-11-29T13:12:21.226Z,2.10
2022-11-29T13:15:21.713Z,2.10
2022-11-29T13:18:23.069Z,1.38
2022-11-29T13:21:09.925Z,2.67
2022-11-29T13:24:10.309Z,2.33
2022-11-29T13:26:40.996Z,2.38
2022-11-29T13:29:15.092Z,2.47
2022-11-29T13:31:42.881Z,1.90
2022-11-29T13:34:22.017Z,1.92
2022-11-29T13:37:27.427Z,4.63
2022-11-29T13:40:23.709Z,2.47
2022-11-29T13:43:35.308Z,3.08
2022-11-29T13:46:30.612Z,2.25
2022-11-29T13:48:57.933Z,1.83
2022-11-29T13:51:34.631Z,3.25
2022-11-29T13:54:05.150Z,2.42
2022-11-29T13:56:48.084Z,1.70
2022-11-29T13:59:34.102Z,1.80
2022-11-29T14:02:01.622Z,1.60
2022-11-29T14:04:37.739Z,1.73
2022-11-29T14:07:11.503Z,3.65
2022-11-29T14:09:59.295Z,2.58
2022-11-29T14:12:57.253Z,1.23
2022-11-29T14:15:31.310Z,3.80
2022-11-29T14:18:09.182Z,2.80
2022-11-29T14:20:54.269Z,1.83
2022-11-29T14:23:33.739Z,2.10
2022-11-29T14:26:28.025Z,1.85
2022-11-29T14:28:56.059Z,1.45
2022-11-29T14:31:53.391Z,2.17
2022-11-29T14:34:28.260Z,1.77
2022-11-29T14:37:06.821Z,1.70
2022-11-29T14:39:55.290Z,3.08
2022-11-29T14:42:25.739Z,2.47
2022-11-29T14:45:04.943Z,3.10
2022-11-29T14:47:39.095Z,4.18
2022-11-29T14:50:10.737Z,3.03
2022-11-29T14:52:51.678Z,4.85
2022-11-29T14:55:39.138Z,18.90
2022-11-29T14:58:18.268Z,9.43
2022-11-29T15:00:55.370Z,4.25
2022-11-29T15:03:45.210Z,2.78
2022-11-29T15:06:23.390Z,3.17
2022-11-29T15:09:16.965Z,2.95
2022-11-29T15:12:14.786Z,3.20
2022-11-29T15:15:20.466Z,3.30
2022-11-29T15:18:46.143Z,3.53
2022-11-29T15:21:58.395Z,2.88
2022-11-29T15:24:28.673Z,3.55
2022-11-29T15:26:58.632Z,19.10
2022-11-29T15:29:26.964Z,4.43
2022-11-29T15:31:56.847Z,3.05
2022-11-29T15:34:37.136Z,3.10
2022-11-29T15:37:04.841Z,3.45
2022-11-29T15:39:34.743Z,2.17
2022-11-29T15:42:13.643Z,1.98
2022-11-29T15:44:48.390Z,3.58
2022-11-29T15:47:26.806Z,2.58
2022-11-29T15:49:54.734Z,3.17
2022-11-29T15:52:29.806Z,2.25
2022-11-29T15:55:04.179Z,3.25
2022-11-29T15:57:46.231Z,2.38
2022-11-29T16:00:20.559Z,2.90
2022-11-29T16:02:54.342Z,2.10
2022-11-29T16:05:31.362Z,1.90
2022-11-29T16:08:17.938Z,2.22
2022-11-29T16:10:50.619Z,3.13
2022-11-29T16:13:34.062Z,2.60
2022-11-29T16:16:24.993Z,2.63
2022-11-29T16:18:52.066Z,3.25
2022-11-29T16:21:39.477Z,3.00
2022-11-29T16:24:19.728Z,2.72
2022-11-29T16:26:49.852Z,2.58
2022-11-29T16:29:45.382Z,2.00
2022-11-29T16:32:15.166Z,1.92
2022-11-29T16:34:43.965Z,4.10
2022-11-29T16:37:19.000Z,2.65
2022-11-29T16:39:49.581Z,2.65
2022-11-29T16:42:43.412Z,4.67
2022-11-29T16:45:39.454Z,4.30
2022-11-29T16:48:30.523Z,3.50
2022-11-29T16:51:42.688Z,4.55
2022-11-29T16:54:27.976Z,5.40
2022-11-29T16:56:57.452Z,3.65
2022-11-29T16:59:28.358Z,6.30
2022-11-29T17:01:57.072Z,4.57
2022-11-29T17:04:25.152Z,4.28
2022-11-29T17:06:56.809Z,5.70
2022-11-29T17:11:56.280Z,3.80
2022-11-29T17:14:23.412Z,4.40
2022-11-29T17:16:51.960Z,4.45
2022-11-29T17:19:22.157Z,6.57
2022-11-29T17:21:49.668Z,5.60
2022-11-29T17:24:19.779Z,6.45
2022-11-29T17:26:47.098Z,6.15
2022-11-29T17:29:15.944Z,6.70
2022-11-29T17:31:44.374Z,6.70
2022-11-29T17:34:11.681Z,6.40
2022-11-29T17:36:38.827Z,6.78
2022-11-29T17:39:06.423Z,6.45
2022-11-29T17:41:33.947Z,6.60
2022-11-29T17:44:01.320Z,6.13
2022-11-29T17:46:34.254Z,6.32
2022-11-29T17:49:03.204Z,7.50
2022-11-29T17:54:17.729Z,6.82
2022-11-29T17:56:44.632Z,7.65
2022-11-29T17:59:11.606Z,7.57
2022-11-29T18:01:38.850Z,6.60
2022-11-29T18:04:08.540Z,6.22
2022-11-29T18:06:38.184Z,6.10
2022-11-29T18:09:07.120Z,5.25
2022-11-29T18:11:46.397Z,6.20
2022-11-29T18:14:16.633Z,6.57
2022-11-29T18:16:45.820Z,5.63
2022-11-29T18:19:15.834Z,7.07
2022-11-29T18:21:43.019Z,6.10
2022-11-29T18:24:10.389Z,5.85
2022-11-29T18:26:38.698Z,9.30
2022-11-29T18:29:06.494Z,6.85
2022-11-29T18:31:35.668Z,7.93
2022-11-29T18:34:07.237Z,7.50
2022-11-29T18:36:37.558Z,7.57
2022-11-29T18:39:08.821Z,6.75
2022-11-29T18:41:36.264Z,7.30
2022-11-29T18:44:09.234Z,6.28
2022-11-29T18:46:38.348Z,5.18
2022-11-29T18:49:07.845Z,5.30
2022-11-29T18:51:35.987Z,6.50
2022-11-29T18:54:06.909Z,6.05
2022-11-29T18:56:35.893Z,5.53
2022-11-29T18:59:06.334Z,4.90
2022-11-29T19:01:35.702Z,4.07
2022-11-29T19:04:02.757Z,5.10
2022-11-29T19:06:38.918Z,4.40
2022-11-29T19:09:08.171Z,5.60
2022-11-29T19:11:35.229Z,4.95
2022-11-29T19:14:05.491Z,4.97
2022-11-29T19:16:34.750Z,5.93
2022-11-29T19:19:02.622Z,4.72
2022-11-29T19:21:32.110Z,4.85
2022-11-29T19:24:01.927Z,3.85
2022-11-29T19:26:30.911Z,4.35
2022-11-29T19:29:00.098Z,5.25
2022-11-29T19:31:28.249Z,4.10
2022-11-29T19:33:56.650Z,4.68
2022-11-29T19:36:28.794Z,6.05
2022-11-29T19:38:56.341Z,5.05
2022-11-29T19:41:29.661Z,5.43
2022-11-29T19:43:58.328Z,4.68
2022-11-29T19:46:28.624Z,4.53
2022-11-29T19:48:57.382Z,4.30
2022-11-29T19:51:25.612Z,4.13
2022-11-29T19:53:54.407Z,4.80
2022-11-29T19:56:22.627Z,5.15
2022-11-29T19:58:50.709Z,4.00
2022-11-29T20:01:23.225Z,3.17
2022-11-29T20:03:50.807Z,3.45
2022-11-29T20:06:20.196Z,2.78
2022-11-29T20:08:47.703Z,3.08
2022-11-29T20:11:20.578Z,3.38
2022-11-29T20:13:53.811Z,4.00
2022-11-29T20:16:22.323Z,2.67
2022-11-29T20:18:51.300Z,3.25
2022-11-29T20:21:22.389Z,4.15
2022-11-29T20:23:49.839Z,5.88
2022-11-29T20:26:20.019Z,3.50
2022-11-29T20:28:48.108Z,3.17
2022-11-29T20:31:17.945Z,4.03
2022-11-29T20:33:46.705Z,2.78
2022-11-29T20:36:43.623Z,3.78
2022-11-29T20:39:41.869Z,3.47
2022-11-29T20:42:55.223Z,3.60
2022-11-29T20:45:24.232Z,3.80
2022-11-29T20:47:58.845Z,4.43
2022-11-29T20:50:28.707Z,4.35
2022-11-29T20:53:30.061Z,5.65
2022-11-29T20:55:57.167Z,6.32
2022-11-29T20:58:27.066Z,5.28
2022-11-29T21:00:54.997Z,5.93
2022-11-29T21:03:22.952Z,5.07
2022-11-29T21:05:50.567Z,4.60
2022-11-29T21:08:21.213Z,4.47
2022-11-29T21:10:50.057Z,3.20
2022-11-29T21:13:19.017Z,4.03
2022-11-29T21:15:46.963Z,4.57
2022-11-29T21:18:24.931Z,4.32
2022-11-29T21:21:18.145Z,4.28
2022-11-29T21:23:55.530Z,3.83
2022-11-29T21:26:31.818Z,3.72
2022-11-29T21:29:16.446Z,4.75
2022-11-29T21:31:44.033Z,3.75
2022-11-29T21:34:11.291Z,4.00
2022-11-29T21:36:39.139Z,5.63
2022-11-29T21:39:07.894Z,3.47
2022-11-29T21:41:34.876Z,3.55
2022-11-29T21:44:07.081Z,3.58
2022-11-29T21:46:35.249Z,3.05
2022-11-29T21:49:02.432Z,2.92
2022-11-29T21:51:29.383Z,2.58
2022-11-29T21:53:56.491Z,2.63
2022-11-29T21:56:23.656Z,2.42
2022-11-29T21:58:50.567Z,3.05
2022-11-29T22:01:20.369Z,2.75
2022-11-29T22:03:47.501Z,2.92
2022-11-29T22:06:18.802Z,3.22
2022-11-29T22:08:45.816Z,3.42
2022-11-29T22:11:16.072Z,3.33
2022-11-29T22:14:02.802Z,2.90
2022-11-29T22:16:30.156Z,3.70
2022-11-29T22:18:57.334Z,2.92
2022-11-29T22:21:24.369Z,2.80
2022-11-29T22:23:52.767Z,2.75
2022-11-29T22:26:21.639Z,3.13
2022-11-29T22:28:48.823Z,3.03
2022-11-29T22:31:16.112Z,3.05
2022-11-29T22:33:43.288Z,2.63
2022-11-29T22:36:12.872Z,2.90
2022-11-29T22:38:40.708Z,2.83
2022-11-29T22:41:10.530Z,2.25
2022-11-29T22:43:38.784Z,2.53
2022-11-29T22:46:20.263Z,1.63
2022-11-29T22:48:49.346Z,1.30
2022-11-29T22:51:19.508Z,1.40
2022-11-29T22:53:54.853Z,1.23
2022-11-29T22:56:23.158Z,1.13
2022-11-29T22:58:50.351Z,1.10
2022-11-29T23:01:23.065Z,1.35
2022-11-29T23:03:55.054Z,1.80
2022-11-29T23:06:25.325Z,1.40
2022-11-29T23:08:54.378Z,1.63
2022-11-29T23:11:24.975Z,2.13
2022-11-29T23:13:52.020Z,1.53
2022-11-29T23:16:22.646Z,1.30
2022-11-29T23:18:50.361Z,1.75
2022-11-29T23:21:38.753Z,1.80
2022-11-29T23:24:06.563Z,2.20
2022-11-29T23:26:40.363Z,2.00
2022-11-29T23:29:15.798Z,1.38
2022-11-29T23:31:42.974Z,1.65
2022-11-29T23:34:09.969Z,1.98
2022-11-29T23:36:37.161Z,2.45
2022-11-29T23:39:05.932Z,2.22
2022-11-29T23:41:33.690Z,2.03
2022-11-29T23:44:02.599Z,1.70
2022-11-29T23:46:29.649Z,1.50
2022-11-29T23:48:56.736Z,1.33
2022-11-29T23:51:23.691Z,1.75
2022-11-29T23:53:52.441Z,0.90
2022-11-29T23:56:20.788Z,1.05
2022-11-29T23:58:48.038Z,1.10
